Portada
METAR-TAF:

METAR-TAF

Aeroports :

Kasuminome, Japó

latitud: 38-14N, longitud: 140-55E, altitud: 7 m

Observació

L'informe es va fer fa 16 hores i 45 minuts, a les 07:20 UTC
Vent 2 kt amb direcció variable
Temperatura 17°C
Humitat 94%
Pressió 999 hPa
Visibilitat 10 km o més
Escasses núvols a una alçada de 800 ft
Núvols disperses a una alçada de 1200 ft
Cel ennuvolat a una alçada de 4500 ft
xàfecs de pluja

METAR: RJSU 230720Z VRB02KT 9999 -SHRA FEW008 SCT012 BKN045 17/16 Q0999 RMK 1ST008 4ST012 5CU045 A2952

Hora: 09:05 (00:05 UTC)


TAF: manca

Observacions i pronòstics meteorològics de més de 4000 aeroports (METAR i TAF).

Les estacions disponibles són els punts grocs i vermells al mapa.

Posi el ratolí al punt desitjat per veure el nom de l'estació.

Feu clic per veure les observacions i els pronòstics meteorològics.

Per canviar el mapa: feu clic els botons verds amb una creu de color negre per apropar; al botó verd amb un guió per allunyar la imatge; o en les fletxes verdes per a mapes adjacents.


METAR-TAF: